sensor_id;sensor_type;location;lat;lon;timestamp;pressure;altitude;pressure_sealevel;temperature;humidity
22047;BME280;11187;49.412;20.956;2023-07-31T00:01:09;94751.97;;;16.88;100.00
22047;BME280;11187;49.412;20.956;2023-07-31T00:03:43;94752.78;;;16.89;100.00
22047;BME280;11187;49.412;20.956;2023-07-31T00:06:29;94751.91;;;16.90;100.00
22047;BME280;11187;49.412;20.956;2023-07-31T00:09:03;94747.78;;;16.86;100.00
22047;BME280;11187;49.412;20.956;2023-07-31T00:11:50;94746.19;;;16.83;100.00
22047;BME280;11187;49.412;20.956;2023-07-31T00:14:26;94753.84;;;16.85;100.00
22047;BME280;11187;49.412;20.956;2023-07-31T00:17:13;94744.44;;;16.84;100.00
22047;BME280;11187;49.412;20.956;2023-07-31T00:19:47;94735.91;;;16.82;100.00
22047;BME280;11187;49.412;20.956;2023-07-31T00:22:34;94737.66;;;16.81;100.00
22047;BME280;11187;49.412;20.956;2023-07-31T00:25:07;94736.84;;;16.81;100.00
22047;BME280;11187;49.412;20.956;2023-07-31T00:27:53;94741.16;;;16.80;100.00
22047;BME280;11187;49.412;20.956;2023-07-31T00:30:27;94740.25;;;16.81;100.00
22047;BME280;11187;49.412;20.956;2023-07-31T00:33:20;94741.34;;;16.76;100.00
22047;BME280;11187;49.412;20.956;2023-07-31T00:35:54;94743.91;;;16.76;100.00
22047;BME280;11187;49.412;20.956;2023-07-31T00:38:47;94739.75;;;16.73;100.00
22047;BME280;11187;49.412;20.956;2023-07-31T00:41:42;94738.97;;;16.71;100.00
22047;BME280;11187;49.412;20.956;2023-07-31T00:44:15;94741.72;;;16.68;100.00
22047;BME280;11187;49.412;20.956;2023-07-31T00:47:08;94744.53;;;16.63;100.00
22047;BME280;11187;49.412;20.956;2023-07-31T00:50:03;94744.53;;;16.63;100.00
22047;BME280;11187;49.412;20.956;2023-07-31T00:52:36;94741.19;;;16.61;100.00
22047;BME280;11187;49.412;20.956;2023-07-31T00:55:23;94736.00;;;16.61;100.00
22047;BME280;11187;49.412;20.956;2023-07-31T00:57:56;94741.13;;;16.63;100.00
22047;BME280;11187;49.412;20.956;2023-07-31T01:00:42;94739.41;;;16.62;100.00
22047;BME280;11187;49.412;20.956;2023-07-31T01:03:17;94743.69;;;16.63;100.00
22047;BME280;11187;49.412;20.956;2023-07-31T01:06:12;94744.69;;;16.60;100.00
22047;BME280;11187;49.412;20.956;2023-07-31T01:08:55;94741.41;;;16.57;100.00
22047;BME280;11187;49.412;20.956;2023-07-31T01:11:53;94741.56;;;16.54;100.00
22047;BME280;11187;49.412;20.956;2023-07-31T01:14:26;94741.56;;;16.54;100.00
22047;BME280;11187;49.412;20.956;2023-07-31T01:17:12;94744.13;;;16.54;100.00
22047;BME280;11187;49.412;20.956;2023-07-31T01:19:47;94743.44;;;16.50;100.00
22047;BME280;11187;49.412;20.956;2023-07-31T01:31:23;94743.44;;;16.50;100.00
22047;BME280;11187;49.412;20.956;2023-07-31T01:34:11;94749.44;;;16.50;100.00
22047;BME280;11187;49.412;20.956;2023-07-31T01:36:46;94746.84;;;16.50;100.00
22047;BME280;11187;49.412;20.956;2023-07-31T01:39:33;94748.59;;;16.50;100.00
22047;BME280;11187;49.412;20.956;2023-07-31T01:42:06;94747.84;;;16.48;100.00
22047;BME280;11187;49.412;20.956;2023-07-31T01:44:53;94748.00;;;16.45;100.00
22047;BME280;11187;49.412;20.956;2023-07-31T01:47:26;94750.03;;;16.38;100.00
22047;BME280;11187;49.412;20.956;2023-07-31T01:50:13;94752.88;;;16.32;100.00
22047;BME280;11187;49.412;20.956;2023-07-31T01:52:46;94752.22;;;16.28;100.00
22047;BME280;11187;49.412;20.956;2023-07-31T01:55:39;94746.28;;;16.26;100.00
22047;BME280;11187;49.412;20.956;2023-07-31T01:58:13;94747.16;;;16.25;100.00
22047;BME280;11187;49.412;20.956;2023-07-31T02:01:06;94738.84;;;16.19;100.00
22047;BME280;11187;49.412;20.956;2023-07-31T02:03:40;94742.38;;;16.18;100.00
22047;BME280;11187;49.412;20.956;2023-07-31T02:06:33;94746.97;;;16.11;100.00
22047;BME280;11187;49.412;20.956;2023-07-31T02:09:27;94746.41;;;16.04;100.00
22047;BME280;11187;49.412;20.956;2023-07-31T02:12:01;94743.22;;;15.99;100.00
22047;BME280;11187;49.412;20.956;2023-07-31T02:14:57;94746.84;;;15.95;100.00
22047;BME280;11187;49.412;20.956;2023-07-31T02:17:31;94748.69;;;15.92;100.00
22047;BME280;11187;49.412;20.956;2023-07-31T02:20:17;94747.88;;;15.91;100.00
22047;BME280;11187;49.412;20.956;2023-07-31T02:22:51;94754.00;;;15.89;100.00
22047;BME280;11187;49.412;20.956;2023-07-31T02:25:45;94751.59;;;15.85;100.00
22047;BME280;11187;49.412;20.956;2023-07-31T02:28:18;94749.97;;;15.83;100.00
22047;BME280;11187;49.412;20.956;2023-07-31T02:31:12;94751.84;;;15.79;100.00
22047;BME280;11187;49.412;20.956;2023-07-31T02:33:48;94752.69;;;15.80;100.00
22047;BME280;11187;49.412;20.956;2023-07-31T02:36:43;94761.97;;;15.84;100.00
22047;BME280;11187;49.412;20.956;2023-07-31T02:39:37;94761.00;;;15.86;100.00
22047;BME280;11187;49.412;20.956;2023-07-31T02:42:31;94758.34;;;15.88;100.00
22047;BME280;11187;49.412;20.956;2023-07-31T02:45:04;94761.91;;;15.85;100.00
22047;BME280;11187;49.412;20.956;2023-07-31T02:47:52;94761.25;;;15.80;100.00
22047;BME280;11187;49.412;20.956;2023-07-31T02:50:25;94761.41;;;15.77;100.00
22047;BME280;11187;49.412;20.956;2023-07-31T02:53:12;94764.03;;;15.76;100.00
22047;BME280;11187;49.412;20.956;2023-07-31T02:55:45;94764.19;;;15.73;100.00
22047;BME280;11187;49.412;20.956;2023-07-31T02:58:39;94774.50;;;15.73;100.00
22047;BME280;11187;49.412;20.956;2023-07-31T03:01:33;94770.19;;;15.73;100.00
22047;BME280;11187;49.412;20.956;2023-07-31T03:04:07;94763.28;;;15.74;100.00
22047;BME280;11187;49.412;20.956;2023-07-31T03:07:01;94763.16;;;15.77;100.00
22047;BME280;11187;49.412;20.956;2023-07-31T03:09:34;94765.66;;;15.78;100.00
22047;BME280;11187;49.412;20.956;2023-07-31T03:12:28;94757.00;;;15.79;100.00
22047;BME280;11187;49.412;20.956;2023-07-31T03:15:22;94753.50;;;15.80;100.00
22047;BME280;11187;49.412;20.956;2023-07-31T03:17:55;94765.59;;;15.80;100.00
22047;BME280;11187;49.412;20.956;2023-07-31T03:20:43;94758.97;;;15.74;100.00
22047;BME280;11187;49.412;20.956;2023-07-31T03:23:17;94757.28;;;15.73;100.00
22047;BME280;11187;49.412;20.956;2023-07-31T03:26:07;94765.09;;;15.72;100.00
22047;BME280;11187;49.412;20.956;2023-07-31T03:28:40;94760.78;;;15.72;100.00
22047;BME280;11187;49.412;20.956;2023-07-31T03:31:27;94757.38;;;15.72;100.00
22047;BME280;11187;49.412;20.956;2023-07-31T03:34:00;94756.50;;;15.71;100.00
22047;BME280;11187;49.412;20.956;2023-07-31T03:36:47;94749.69;;;15.69;100.00
22047;BME280;11187;49.412;20.956;2023-07-31T03:39:41;94752.22;;;15.70;100.00
22047;BME280;11187;49.412;20.956;2023-07-31T03:42:35;94757.53;;;15.67;100.00
22047;BME280;11187;49.412;20.956;2023-07-31T03:45:08;94758.38;;;15.68;100.00
22047;BME280;11187;49.412;20.956;2023-07-31T03:47:56;94757.53;;;15.67;100.00
22047;BME280;11187;49.412;20.956;2023-07-31T03:50:29;94761.97;;;15.63;100.00
22047;BME280;11187;49.412;20.956;2023-07-31T03:53:16;94756.81;;;15.63;100.00
22047;BME280;11187;49.412;20.956;2023-07-31T03:55:49;94761.06;;;15.64;100.00
22047;BME280;11187;49.412;20.956;2023-07-31T03:58:36;94766.16;;;15.66;100.00
22047;BME280;11187;49.412;20.956;2023-07-31T04:01:09;94767.00;;;15.66;100.00
22047;BME280;11187;49.412;20.956;2023-07-31T04:04:05;94767.91;;;15.65;100.00
22047;BME280;11187;49.412;20.956;2023-07-31T04:06:59;94767.97;;;15.64;100.00
22047;BME280;11187;49.412;20.956;2023-07-31T04:09:32;94761.06;;;15.64;100.00
22047;BME280;11187;49.412;20.956;2023-07-31T04:12:19;94755.91;;;15.64;100.00
22047;BME280;11187;49.412;20.956;2023-07-31T04:14:52;94754.25;;;15.63;100.00
22047;BME280;11187;49.412;20.956;2023-07-31T04:17:39;94761.06;;;15.64;100.00
22047;BME280;11187;49.412;20.956;2023-07-31T04:20:12;94761.97;;;15.63;100.00
22047;BME280;11187;49.412;20.956;2023-07-31T04:23:06;94769.78;;;15.62;100.00
22047;BME280;11187;49.412;20.956;2023-07-31T04:26:00;94772.44;;;15.60;100.00
22047;BME280;11187;49.412;20.956;2023-07-31T04:28:35;94781.03;;;15.61;100.00
22047;BME280;11187;49.412;20.956;2023-07-31T04:31:23;94779.41;;;15.58;100.00
22047;BME280;11187;49.412;20.956;2023-07-31T04:33:56;94775.13;;;15.57;100.00
22047;BME280;11187;49.412;20.956;2023-07-31T04:36:43;94778.59;;;15.58;100.00
22047;BME280;11187;49.412;20.956;2023-07-31T04:39:39;94782.00;;;15.58;100.00
22047;BME280;11187;49.412;20.956;2023-07-31T04:42:35;94781.16;;;15.58;100.00
22047;BME280;11187;49.412;20.956;2023-07-31T04:45:29;94786.31;;;15.58;100.00
22047;BME280;11187;49.412;20.956;2023-07-31T04:48:23;94786.22;;;15.59;100.00
22047;BME280;11187;49.412;20.956;2023-07-31T04:50:56;94786.19;;;15.61;100.00
22047;BME280;11187;49.412;20.956;2023-07-31T04:53:50;94784.44;;;15.61;100.00
22047;BME280;11187;49.412;20.956;2023-07-31T04:56:44;94788.75;;;15.61;100.00
22047;BME280;11187;49.412;20.956;2023-07-31T04:59:17;94796.56;;;15.59;100.00
22047;BME280;11187;49.412;20.956;2023-07-31T05:02:04;94791.28;;;15.62;100.00
22047;BME280;11187;49.412;20.956;2023-07-31T05:04:37;94798.06;;;15.65;100.00
22047;BME280;11187;49.412;20.956;2023-07-31T05:07:33;94794.41;;;15.69;100.00
22047;BME280;11187;49.412;20.956;2023-07-31T05:10:27;94787.34;;;15.74;100.00
22047;BME280;11187;49.412;20.956;2023-07-31T05:13:00;94795.66;;;15.81;100.00
22047;BME280;11187;49.412;20.956;2023-07-31T05:15:47;94790.88;;;15.92;100.00
22047;BME280;11187;49.412;20.956;2023-07-31T05:18:22;94787.78;;;16.03;100.00
22047;BME280;11187;49.412;20.956;2023-07-31T05:21:09;94791.59;;;16.15;100.00
22047;BME280;11187;49.412;20.956;2023-07-31T05:23:42;94797.16;;;16.24;100.00
22047;BME280;11187;49.412;20.956;2023-07-31T05:26:29;94800.09;;;16.36;100.00
22047;BME280;11187;49.412;20.956;2023-07-31T05:29:03;94797.84;;;16.47;100.00
22047;BME280;11187;49.412;20.956;2023-07-31T05:31:50;94793.84;;;16.59;100.00
22047;BME280;11187;49.412;20.956;2023-07-31T05:34:23;94804.53;;;16.70;100.00
22047;BME280;11187;49.412;20.956;2023-07-31T05:37:17;94799.56;;;16.84;100.00
22047;BME280;11187;49.412;20.956;2023-07-31T05:40:11;94802.34;;;16.99;100.00
22047;BME280;11187;49.412;20.956;2023-07-31T05:42:44;94800.06;;;17.10;100.00
22047;BME280;11187;49.412;20.956;2023-07-31T05:45:31;94803.69;;;17.23;100.00
22047;BME280;11187;49.412;20.956;2023-07-31T05:48:04;94801.34;;;17.36;100.00
22047;BME280;11187;49.412;20.956;2023-07-31T05:50:51;94804.16;;;17.49;100.00
22047;BME280;11187;49.412;20.956;2023-07-31T05:53:24;94803.69;;;17.58;100.00
22047;BME280;11187;49.412;20.956;2023-07-31T05:56:11;94805.06;;;17.65;100.00
22047;BME280;11187;49.412;20.956;2023-07-31T05:58:44;94803.22;;;17.67;100.00
22047;BME280;11187;49.412;20.956;2023-07-31T06:01:38;94805.06;;;17.65;100.00
22047;BME280;11187;49.412;20.956;2023-07-31T06:04:32;94809.53;;;17.62;100.00
22047;BME280;11187;49.412;20.956;2023-07-31T06:07:05;94801.78;;;17.62;100.00
22047;BME280;11187;49.412;20.956;2023-07-31T06:09:52;94808.41;;;17.67;100.00
22047;BME280;11187;49.412;20.956;2023-07-31T06:12:27;94813.34;;;17.72;100.00
22047;BME280;11187;49.412;20.956;2023-07-31T06:15:14;94810.59;;;17.75;100.00
22047;BME280;11187;49.412;20.956;2023-07-31T06:17:47;94812.84;;;17.83;100.00
22047;BME280;11187;49.412;20.956;2023-07-31T06:20:34;94809.00;;;17.90;100.00
22047;BME280;11187;49.412;20.956;2023-07-31T06:23:08;94805.41;;;17.92;100.00
22047;BME280;11187;49.412;20.956;2023-07-31T06:25:55;94813.84;;;17.96;100.00
22047;BME280;11187;49.412;20.956;2023-07-31T06:28:29;94813.03;;;17.95;100.00
22047;BME280;11187;49.412;20.956;2023-07-31T06:31:23;94816.28;;;17.99;100.00
22047;BME280;11187;49.412;20.956;2023-07-31T06:33:56;94814.97;;;18.08;100.00
22047;BME280;11187;49.412;20.956;2023-07-31T06:36:43;94820.69;;;18.14;100.00
22047;BME280;11187;49.412;20.956;2023-07-31T06:39:30;94819.91;;;18.12;100.00
22047;BME280;11187;49.412;20.956;2023-07-31T06:42:24;94817.41;;;18.11;100.00
22047;BME280;11187;49.412;20.956;2023-07-31T06:44:57;94822.66;;;18.09;100.00
22047;BME280;11187;49.412;20.956;2023-07-31T06:47:44;94815.13;;;18.05;100.00
22047;BME280;11187;49.412;20.956;2023-07-31T06:50:18;94817.47;;;18.09;100.00
22047;BME280;11187;49.412;20.956;2023-07-31T06:53:05;94807.56;;;18.18;100.00
22047;BME280;11187;49.412;20.956;2023-07-31T06:55:38;94806.38;;;18.23;100.00
22047;BME280;11187;49.412;20.956;2023-07-31T06:58:32;94799.47;;;18.24;100.00
22047;BME280;11187;49.412;20.956;2023-07-31T07:01:26;94813.91;;;18.28;100.00
22047;BME280;11187;49.412;20.956;2023-07-31T07:04:01;94812.50;;;18.38;100.00
22047;BME280;11187;49.412;20.956;2023-07-31T07:06:55;94815.53;;;18.46;100.00
22047;BME280;11187;49.412;20.956;2023-07-31T07:09:49;94806.50;;;18.53;100.00
22047;BME280;11187;49.412;20.956;2023-07-31T07:12:43;94812.00;;;18.63;100.00
22047;BME280;11187;49.412;20.956;2023-07-31T07:15:38;94804.56;;;18.73;100.00
22047;BME280;11187;49.412;20.956;2023-07-31T07:18:11;94806.66;;;18.82;100.00
22047;BME280;11187;49.412;20.956;2023-07-31T07:20:58;94800.06;;;18.92;100.00
22047;BME280;11187;49.412;20.956;2023-07-31T07:23:31;94801.03;;;19.06;100.00
22047;BME280;11187;49.412;20.956;2023-07-31T07:26:18;94804.00;;;19.14;100.00
22047;BME280;11187;49.412;20.956;2023-07-31T07:28:51;94805.25;;;19.23;100.00
22047;BME280;11187;49.412;20.956;2023-07-31T07:31:41;94802.78;;;19.35;100.00
22047;BME280;11187;49.412;20.956;2023-07-31T07:34:14;94813.28;;;19.48;100.00
22047;BME280;11187;49.412;20.956;2023-07-31T07:37:01;94805.34;;;19.51;100.00
22047;BME280;11187;49.412;20.956;2023-07-31T07:39:55;94803.91;;;19.46;100.00
22047;BME280;11187;49.412;20.956;2023-07-31T07:42:49;94799.81;;;19.41;100.00
22047;BME280;11187;49.412;20.956;2023-07-31T07:45:23;94804.28;;;19.39;100.00
22047;BME280;11187;49.412;20.956;2023-07-31T07:48:10;94802.78;;;19.35;100.00
22047;BME280;11187;49.412;20.956;2023-07-31T07:50:43;94799.44;;;19.33;100.00
22047;BME280;11187;49.412;20.956;2023-07-31T07:53:30;94802.13;;;19.32;100.00
22047;BME280;11187;49.412;20.956;2023-07-31T07:56:03;94806.16;;;19.37;100.00
22047;BME280;11187;49.412;20.956;2023-07-31T07:58:57;94799.75;;;19.43;100.00
22047;BME280;11187;49.412;20.956;2023-07-31T08:01:51;94793.81;;;19.41;100.00
22047;BME280;11187;49.412;20.956;2023-07-31T08:04:24;94794.56;;;19.43;100.00
22047;BME280;11187;49.412;20.956;2023-07-31T08:07:11;94795.38;;;19.44;100.00
22047;BME280;11187;49.412;20.956;2023-07-31T08:09:45;94787.44;;;19.47;100.00
22047;BME280;11187;49.412;20.956;2023-07-31T08:12:32;94797.91;;;19.45;100.00
22047;BME280;11187;49.412;20.956;2023-07-31T08:15:06;94793.53;;;19.46;100.00
22047;BME280;11187;49.412;20.956;2023-07-31T08:17:53;94793.19;;;19.52;100.00
22047;BME280;11187;49.412;20.956;2023-07-31T08:20:26;94797.91;;;19.59;100.00
22047;BME280;11187;49.412;20.956;2023-07-31T08:23:13;94799.50;;;19.62;100.00
22047;BME280;11187;49.412;20.956;2023-07-31T08:25:46;94797.66;;;19.64;100.00
22047;BME280;11187;49.412;20.956;2023-07-31T08:28:40;94806.28;;;19.65;100.00
22047;BME280;11187;49.412;20.956;2023-07-31T08:31:34;94808.47;;;19.72;100.00
22047;BME280;11187;49.412;20.956;2023-07-31T08:34:07;94807.34;;;19.76;100.00
22047;BME280;11187;49.412;20.956;2023-07-31T08:36:54;94809.41;;;19.86;100.00
22047;BME280;11187;49.412;20.956;2023-07-31T08:39:41;94819.16;;;19.96;100.00
22047;BME280;11187;49.412;20.956;2023-07-31T08:42:52;94823.69;;;19.93;100.00
22047;BME280;11187;49.412;20.956;2023-07-31T08:45:25;94826.75;;;19.85;100.00
22047;BME280;11187;49.412;20.956;2023-07-31T08:48:15;94827.94;;;19.79;100.00
22047;BME280;11187;49.412;20.956;2023-07-31T08:50:48;94832.03;;;19.69;100.00
22047;BME280;11187;49.412;20.956;2023-07-31T08:53:35;94832.41;;;19.61;100.00
22047;BME280;11187;49.412;20.956;2023-07-31T08:56:09;94829.34;;;19.55;100.00
22047;BME280;11187;49.412;20.956;2023-07-31T08:58:57;94826.53;;;19.44;100.00
22047;BME280;11187;49.412;20.956;2023-07-31T09:01:37;94828.66;;;19.37;100.00
22047;BME280;11187;49.412;20.956;2023-07-31T09:04:30;94830.94;;;19.27;100.00
22047;BME280;11187;49.412;20.956;2023-07-31T09:07:05;94838.34;;;19.19;100.00
22047;BME280;11187;49.412;20.956;2023-07-31T09:10:00;94837.00;;;19.12;100.00
22047;BME280;11187;49.412;20.956;2023-07-31T09:12:54;94835.59;;;19.06;100.00
22047;BME280;11187;49.412;20.956;2023-07-31T09:15:52;94837.69;;;18.99;100.00
22047;BME280;11187;49.412;20.956;2023-07-31T09:18:28;94838.78;;;18.95;100.00
22047;BME280;11187;49.412;20.956;2023-07-31T09:21:15;94842.38;;;18.93;100.00
22047;BME280;11187;49.412;20.956;2023-07-31T09:23:49;94849.34;;;18.92;100.00
22047;BME280;11187;49.412;20.956;2023-07-31T09:26:44;94847.84;;;18.88;100.00
22047;BME280;11187;49.412;20.956;2023-07-31T09:29:38;94840.13;;;18.87;100.00
22047;BME280;11187;49.412;20.956;2023-07-31T09:32:17;94842.81;;;18.85;100.00
22047;BME280;11187;49.412;20.956;2023-07-31T09:38:08;94841.06;;;18.86;100.00
22047;BME280;11187;49.412;20.956;2023-07-31T09:40:55;94836.78;;;18.85;100.00
22047;BME280;11187;49.412;20.956;2023-07-31T09:43:31;94838.47;;;18.86;100.00
22047;BME280;11187;49.412;20.956;2023-07-31T09:46:20;94831.34;;;18.89;100.00
22047;BME280;11187;49.412;20.956;2023-07-31T09:49:06;94838.72;;;18.97;100.00
22047;BME280;11187;49.412;20.956;2023-07-31T09:51:53;94834.91;;;19.03;100.00
22047;BME280;11187;49.412;20.956;2023-07-31T09:54:26;94835.53;;;19.08;100.00
22047;BME280;11187;49.412;20.956;2023-07-31T09:57:21;94833.75;;;19.08;100.00
22047;BME280;11187;49.412;20.956;2023-07-31T10:00:17;94840.59;;;19.09;100.00
22047;BME280;11187;49.412;20.956;2023-07-31T10:02:51;94844.03;;;19.10;100.00
22047;BME280;11187;49.412;20.956;2023-07-31T10:05:40;94833.84;;;19.07;100.00
22047;BME280;11187;49.412;20.956;2023-07-31T10:08:16;94838.28;;;19.05;100.00
22047;BME280;11187;49.412;20.956;2023-07-31T10:11:11;94836.59;;;19.04;100.00
22047;BME280;11187;49.412;20.956;2023-07-31T10:14:07;94842.88;;;18.99;100.00
22047;BME280;11187;49.412;20.956;2023-07-31T10:16:40;94843.06;;;18.96;100.00
22047;BME280;11187;49.412;20.956;2023-07-31T10:19:35;94836.13;;;18.97;100.00
22047;BME280;11187;49.412;20.956;2023-07-31T10:22:30;94842.22;;;18.96;100.00
22047;BME280;11187;49.412;20.956;2023-07-31T10:25:26;94834.28;;;18.99;100.00
22047;BME280;11187;49.412;20.956;2023-07-31T10:27:59;94833.84;;;19.07;100.00
22047;BME280;11187;49.412;20.956;2023-07-31T10:30:46;94834.56;;;19.25;100.00
22047;BME280;11187;49.412;20.956;2023-07-31T10:33:20;94831.91;;;19.40;100.00
22047;BME280;11187;49.412;20.956;2023-07-31T10:36:18;94829.06;;;19.45;100.00
22047;BME280;11187;49.412;20.956;2023-07-31T10:38:51;94828.97;;;19.47;100.00
22047;BME280;11187;49.412;20.956;2023-07-31T10:41:38;94823.66;;;19.48;100.00
22047;BME280;11187;49.412;20.956;2023-07-31T10:44:13;94824.41;;;19.50;100.00
22047;BME280;11187;49.412;20.956;2023-07-31T10:47:07;94824.34;;;19.52;100.00
22047;BME280;11187;49.412;20.956;2023-07-31T10:50:16;94822.69;;;19.51;100.00
22047;BME280;11187;49.412;20.956;2023-07-31T10:52:53;94822.75;;;19.49;100.00
22047;BME280;11187;49.412;20.956;2023-07-31T10:55:42;94815.88;;;19.48;100.00
22047;BME280;11187;49.412;20.956;2023-07-31T10:58:18;94821.19;;;19.47;100.00
22047;BME280;11187;49.412;20.956;2023-07-31T11:01:06;94820.44;;;19.45;100.00
22047;BME280;11187;49.412;20.956;2023-07-31T11:03:43;94814.50;;;19.43;100.00
22047;BME280;11187;49.412;20.956;2023-07-31T11:06:32;94825.06;;;19.39;100.00
22047;BME280;11187;49.412;20.956;2023-07-31T11:09:06;94827.00;;;19.36;100.00
22047;BME280;11187;49.412;20.956;2023-07-31T11:11:54;94825.41;;;19.33;100.00
22047;BME280;11187;49.412;20.956;2023-07-31T11:14:27;94820.41;;;19.30;100.00
22047;BME280;11187;49.412;20.956;2023-07-31T11:17:14;94826.69;;;19.26;100.00
22047;BME280;11187;49.412;20.956;2023-07-31T11:19:50;94818.97;;;19.25;100.00
22047;BME280;11187;49.412;20.956;2023-07-31T11:22:37;94821.84;;;19.20;100.00
22047;BME280;11187;49.412;20.956;2023-07-31T11:25:10;94815.72;;;19.21;100.00
22047;BME280;11187;49.412;20.956;2023-07-31T11:28:02;94819.16;;;19.22;100.00
22047;BME280;11187;49.412;20.956;2023-07-31T11:30:37;94809.53;;;19.24;100.00
22047;BME280;11187;49.412;20.956;2023-07-31T11:33:24;94809.28;;;19.28;100.00
22047;BME280;11187;49.412;20.956;2023-07-31T11:35:57;94801.09;;;19.34;100.00
22047;BME280;11187;49.412;20.956;2023-07-31T11:38:44;94800.00;;;19.38;100.00
22047;BME280;11187;49.412;20.956;2023-07-31T11:41:40;94797.34;;;19.40;100.00
22047;BME280;11187;49.412;20.956;2023-07-31T11:44:14;94806.34;;;19.49;100.00
22047;BME280;11187;49.412;20.956;2023-07-31T11:47:07;94792.44;;;19.50;100.00
22047;BME280;11187;49.412;20.956;2023-07-31T11:49:40;94797.63;;;19.50;100.00
22047;BME280;11187;49.412;20.956;2023-07-31T11:52:34;94789.56;;;19.54;98.99
22047;BME280;11187;49.412;20.956;2023-07-31T11:55:09;94793.00;;;19.55;99.42
22047;BME280;11187;49.412;20.956;2023-07-31T11:57:57;94798.19;;;19.55;99.49
22047;BME280;11187;49.412;20.956;2023-07-31T12:00:31;94787.06;;;19.53;100.00
22047;BME280;11187;49.412;20.956;2023-07-31T12:03:18;94786.22;;;19.52;100.00
22047;BME280;11187;49.412;20.956;2023-07-31T12:05:53;94789.56;;;19.54;100.00
22047;BME280;11187;49.412;20.956;2023-07-31T12:08:47;94788.75;;;19.54;99.66
22047;BME280;11187;49.412;20.956;2023-07-31T12:11:45;94789.66;;;19.53;100.00
22047;BME280;11187;49.412;20.956;2023-07-31T12:14:41;94787.16;;;19.51;100.00
22047;BME280;11187;49.412;20.956;2023-07-31T12:17:15;94782.88;;;19.50;100.00
22047;BME280;11187;49.412;20.956;2023-07-31T12:20:09;94778.81;;;19.46;100.00
22047;BME280;11187;49.412;20.956;2023-07-31T12:22:43;94777.13;;;19.45;100.00
22047;BME280;11187;49.412;20.956;2023-07-31T12:25:31;94774.63;;;19.44;99.67
22047;BME280;11187;49.412;20.956;2023-07-31T12:28:05;94766.66;;;19.47;100.00
22047;BME280;11187;49.412;20.956;2023-07-31T12:30:57;94770.00;;;19.49;100.00
22047;BME280;11187;49.412;20.956;2023-07-31T12:33:33;94765.44;;;19.52;100.00
22047;BME280;11187;49.412;20.956;2023-07-31T12:36:23;94761.84;;;19.55;100.00
22047;BME280;11187;49.412;20.956;2023-07-31T12:38:56;94753.78;;;19.59;100.00
22047;BME280;11187;49.412;20.956;2023-07-31T12:41:51;94757.94;;;19.62;100.00
22047;BME280;11187;49.412;20.956;2023-07-31T12:44:24;94751.84;;;19.63;100.00
22047;BME280;11187;49.412;20.956;2023-07-31T12:47:11;94749.25;;;19.63;100.00
22047;BME280;11187;49.412;20.956;2023-07-31T12:49:44;94749.31;;;19.61;100.00
22047;BME280;11187;49.412;20.956;2023-07-31T12:52:31;94751.91;;;19.61;100.00
22047;BME280;11187;49.412;20.956;2023-07-31T12:55:05;94746.72;;;19.61;99.59
22047;BME280;11187;49.412;20.956;2023-07-31T12:57:52;94743.38;;;19.59;99.92
22047;BME280;11187;49.412;20.956;2023-07-31T13:00:25;94739.75;;;19.62;100.00
22047;BME280;11187;49.412;20.956;2023-07-31T13:03:12;94746.84;;;19.60;99.51
22047;BME280;11187;49.412;20.956;2023-07-31T13:05:45;94743.22;;;19.63;99.56
22047;BME280;11187;49.412;20.956;2023-07-31T13:08:32;94730.88;;;19.66;100.00
22047;BME280;11187;49.412;20.956;2023-07-31T13:11:05;94732.47;;;19.69;100.00
22047;BME280;11187;49.412;20.956;2023-07-31T13:13:59;94736.75;;;19.70;100.00
22047;BME280;11187;49.412;20.956;2023-07-31T13:16:53;94735.81;;;19.71;100.00
22047;BME280;11187;49.412;20.956;2023-07-31T13:19:47;94732.47;;;19.69;100.00
22047;BME280;11187;49.412;20.956;2023-07-31T13:22:20;94735.00;;;19.70;99.49
22047;BME280;11187;49.412;20.956;2023-07-31T13:25:07;94732.47;;;19.69;99.60
22047;BME280;11187;49.412;20.956;2023-07-31T13:27:40;94745.47;;;19.69;100.00
22047;BME280;11187;49.412;20.956;2023-07-31T13:30:27;94735.97;;;19.68;99.49
22047;BME280;11187;49.412;20.956;2023-07-31T13:33:00;94734.31;;;19.67;99.07
22047;BME280;11187;49.412;20.956;2023-07-31T13:36:13;94723.69;;;19.71;99.00
22047;BME280;11187;49.412;20.956;2023-07-31T13:39:07;94721.81;;;19.73;99.58
22047;BME280;11187;49.412;20.956;2023-07-31T13:42:05;94717.47;;;19.74;97.31
22047;BME280;11187;49.412;20.956;2023-07-31T13:44:59;94725.59;;;19.82;97.81
22047;BME280;11187;49.412;20.956;2023-07-31T13:47:33;94717.66;;;19.85;96.99
22047;BME280;11187;49.412;20.956;2023-07-31T13:50:20;94716.72;;;19.86;96.62
22047;BME280;11187;49.412;20.956;2023-07-31T13:52:55;94709.84;;;19.85;96.52
22047;BME280;11187;49.412;20.956;2023-07-31T13:55:49;94706.97;;;19.90;95.71
22047;BME280;11187;49.412;20.956;2023-07-31T13:58:43;94707.53;;;19.95;97.23
22047;BME280;11187;49.412;20.956;2023-07-31T14:01:16;94702.03;;;19.99;96.01
22047;BME280;11187;49.412;20.956;2023-07-31T14:04:04;94696.75;;;20.01;95.67
22047;BME280;11187;49.412;20.956;2023-07-31T14:06:38;94697.38;;;20.05;98.74
22047;BME280;11187;49.412;20.956;2023-07-31T14:09:31;94699.34;;;20.01;98.13
22047;BME280;11187;49.412;20.956;2023-07-31T14:12:05;94690.69;;;20.00;98.37
22047;BME280;11187;49.412;20.956;2023-07-31T14:15:01;94694.31;;;19.98;95.84
22047;BME280;11187;49.412;20.956;2023-07-31T14:17:34;94694.16;;;20.01;97.22